PDT,Max TemperatureF,Mean TemperatureF,Min TemperatureF,Max Dew PointF,MeanDew PointF,Min DewpointF,Max Humidity, Mean Humidity, Min Humidity, Max Sea Level PressureIn, Mean Sea Level PressureIn, Min Sea Level PressureIn, Max VisibilityMiles, Mean VisibilityMiles, Min VisibilityMiles, Max Wind SpeedMPH, Mean Wind SpeedMPH, Max Gust SpeedMPH,PrecipitationIn, CloudCover, Events, WindDirDegrees
2011-10-1,82,65,48,46,39,32,62,39,21,30.14,30.11,30.09,10,9,7,18,5,23,0.00,0,,6
2011-10-2,78,64,50,50,43,39,82,59,32,30.17,30.15,30.11,10,9,7,13,1,18,0.00,0,,354
2011-10-3,78,60,42,48,41,32,87,55,19,30.10,30.04,29.96,10,9,7,17,4,23,0.00,0,,214
2011-10-4,57,50,44,45,40,32,93,67,47,29.98,29.96,29.94,10,9,5,23,11,30,0.00,1,Rain,304
2011-10-5,57,50,42,48,42,36,100,78,54,29.94,29.85,29.80,10,7,1,26,10,36,1.11,0,Rain,278
2011-10-6,48,44,39,41,39,36,100,88,62,29.96,29.91,29.85,9,6,2,22,16,29,0.38,0,Rain,301
2011-10-7,50,42,35,39,37,34,100,87,62,30.17,30.12,30.06,10,7,4,12,7,,0.00,1,,290
2011-10-8,66,49,32,43,36,30,100,74,28,30.17,30.14,30.10,10,8,5,15,3,18,0.00,0,,296
2011-10-9,71,54,37,45,35,30,93,59,23,30.13,30.07,30.01,10,8,6,14,4,18,0.00,0,,333
2011-10-10,64,50,37,46,39,36,93,74,42,30.08,30.06,30.04,9,6,3,18,4,26,0.00,0,,320
2011-10-11,,,,,,,,,,,,,,,,,,,0.00,,,-1
2011-10-12,,,,,,,,,,,,,,,,,,,0.00,,,-1
2011-10-13,,,,,,,,,,,,,,,,,,,,,,
2011-10-14,,,,,,,,,,,,,,,,,,,,,,
2011-10-15,,,,,,,,,,,,,,,,,,,,,,
2011-10-16,,,,,,,,,,,,,,,,,,,,,,
2011-10-17,80,65,50,54,43,36,82,53,20,30.22,30.19,30.17,10,9,5,15,8,23,0.00,0,,119
2011-10-18,80,64,48,37,31,27,62,35,15,30.23,30.19,30.12,10,10,7,20,7,30,0.00,0,,118
2011-10-19,68,55,42,54,46,30,93,70,49,30.12,30.07,30.03,10,6,3,16,5,23,0.00,0,,312
2011-10-20,77,59,41,54,43,27,100,74,16,30.13,30.09,30.06,10,4,0,16,4,18,0.00,0,Fog,118
2011-10-21,71,55,39,54,47,39,100,82,46,30.24,30.20,30.17,5,3,0,15,4,18,0.12,4,Fog,335
2011-10-22,80,58,37,46,36,21,100,58,11,30.25,30.21,30.17,10,6,2,18,5,25,0.00,0,,122
2011-10-23,78,58,37,36,26,19,70,35,12,30.18,30.14,30.09,10,9,5,18,4,26,0.00,0,,108
2011-10-24,77,59,41,45,37,30,70,49,22,30.13,30.11,30.07,10,8,6,18,5,24,0.00,0,Rain,335
2011-10-25,62,54,46,50,47,45,100,81,59,30.12,30.08,30.02,8,5,2,22,6,28,0.00,0,,300
2011-10-26,59,48,37,45,41,36,93,76,48,30.16,30.12,30.07,7,6,4,15,9,20,0.00,0,,305
2011-10-27,62,48,35,25,5,1,60,17,9,30.16,30.13,30.09,10,9,8,18,11,25,0.00,0,,115
2011-10-28,68,52,37,25,4,0,37,15,7,30.22,30.18,30.15,10,9,6,20,10,25,0.00,0,,118
2011-10-29,73,52,30,34,18,5,61,34,7,30.24,30.20,30.17,10,8,4,15,4,21,0.00,0,,100
2011-10-30,75,54,32,25,19,12,70,37,9,30.24,30.20,30.16,10,9,7,16,4,22,0.94,0,Rain,118
2011-10-31,75,54,32,37,24,18,60,37,13,30.20,30.14,30.08,10,8,5,17,5,21,0.00,0,,319